Time;durP1;ratioP1;P1;durP2;ratioP2;P2;SDS_P1;SDS_P2;PMS_P1;PMS_P2;Temp;Humidity;BMP_temperature;BMP_pressure;BME280_temperature;BME280_humidity;BME280_pressure;Samples;Min_cycle;Max_cycle;Signal;HPM_P1;HPM_P2
2021/06/29 00:01:24;;;;;;;8.50;7.83;;;17.90;99.90;;;;;;4986733;28;20215;-57
2021/06/29 00:03:50;;;;;;;7.80;7.10;;;18.00;99.90;;;;;;4987556;28;20175;-58
2021/06/29 00:06:16;;;;;;;7.00;6.50;;;18.10;99.90;;;;;;4982197;28;20549;-58
2021/06/29 00:08:41;;;;;;;7.37;6.77;;;18.20;99.90;;;;;;4977219;28;20208;-57
2021/06/29 00:11:07;;;;;;;7.70;7.10;;;18.20;99.90;;;;;;4978110;28;20684;-57
2021/06/29 00:13:33;;;;;;;8.63;8.03;;;18.20;99.90;;;;;;4984020;28;20183;-57
2021/06/29 00:15:58;;;;;;;10.00;9.10;;;18.10;99.90;;;;;;4987611;28;20208;-57
2021/06/29 00:18:24;;;;;;;9.53;8.73;;;18.00;99.90;;;;;;4990078;28;20615;-58
2021/06/29 00:20:49;;;;;;;8.77;8.00;;;18.00;99.90;;;;;;4990178;28;20188;-57
2021/06/29 00:23:15;;;;;;;8.70;8.00;;;18.00;99.90;;;;;;4983527;28;20206;-57
2021/06/29 00:25:41;;;;;;;9.73;8.10;;;18.00;99.90;;;;;;4981934;28;20280;-57
2021/06/29 00:28:07;;;;;;;9.27;7.70;;;17.90;99.90;;;;;;4986323;28;20223;-58
2021/06/29 00:30:32;;;;;;;8.53;7.83;;;18.00;99.90;;;;;;4986303;28;20189;-58
2021/06/29 00:32:58;;;;;;;8.97;8.13;;;17.90;99.90;;;;;;4985309;28;20203;-57
2021/06/29 00:35:24;;;;;;;8.73;7.93;;;18.00;99.90;;;;;;4978918;28;20212;-58
2021/06/29 00:37:49;;;;;;;7.47;6.77;;;18.10;99.90;;;;;;4982867;28;20580;-57
2021/06/29 00:40:16;;;;;;;7.77;7.07;;;18.00;99.90;;;;;;4987623;28;20248;-57
2021/06/29 00:42:42;;;;;;;9.75;8.60;;;18.00;99.90;;;;;;4975993;28;20192;-58
2021/06/29 00:45:10;;;;;;;8.18;7.47;;;18.00;99.90;;;;;;4988679;28;20243;-58
2021/06/29 00:47:36;;;;;;;8.18;7.57;;;18.10;99.90;;;;;;4979797;28;20262;-57
2021/06/29 00:50:04;;;;;;;8.20;7.55;;;18.10;99.90;;;;;;4982165;28;20198;-57
2021/06/29 00:52:30;;;;;;;7.63;7.05;;;18.00;99.90;;;;;;4978320;28;20240;-57
2021/06/29 00:54:56;;;;;;;8.53;7.83;;;18.00;99.90;;;;;;4982818;28;20222;-58
2021/06/29 00:57:21;;;;;;;7.90;7.30;;;18.00;99.90;;;;;;4981514;28;20446;-58
2021/06/29 00:59:47;;;;;;;7.40;6.80;;;18.00;99.90;;;;;;4987181;28;20183;-58
2021/06/29 01:02:13;;;;;;;6.87;6.27;;;17.80;99.90;;;;;;4985403;28;20284;-58
2021/06/29 01:04:41;;;;;;;7.00;6.40;;;18.10;99.90;;;;;;4977950;28;20279;-58
2021/06/29 01:07:09;;;;;;;6.97;6.35;;;18.20;99.90;;;;;;4982824;28;20184;-58
2021/06/29 01:09:36;;;;;;;7.15;6.55;;;18.20;99.90;;;;;;4986508;28;21420;-59
2021/06/29 01:12:02;;;;;;;7.00;6.40;;;18.20;99.90;;;;;;4988400;28;20209;-58
2021/06/29 01:14:27;;;;;;;6.13;5.60;;;18.20;99.90;;;;;;4984582;28;20266;-57
2021/06/29 01:16:53;;;;;;;6.33;5.93;;;18.30;99.90;;;;;;4982664;28;20219;-58
2021/06/29 01:19:21;;;;;;;6.20;5.70;;;18.40;99.90;;;;;;4977169;28;20211;-57
2021/06/29 01:21:49;;;;;;;5.82;5.32;;;18.40;99.90;;;;;;4986984;28;20211;-57
2021/06/29 01:24:29;;;;;;;7.88;5.30;;;18.50;99.90;;;;;;4987539;28;20197;-58
2021/06/29 01:29:36;;;;;;;4.63;4.30;;;18.60;99.90;;;;;;4988248;28;20226;-57
2021/06/29 01:32:02;;;;;;;4.82;4.43;;;18.60;99.90;;;;;;4986226;28;20183;-58
2021/06/29 01:34:27;;;;;;;5.47;5.07;;;18.70;99.90;;;;;;4984192;28;20184;-59
2021/06/29 01:36:53;;;;;;;5.40;4.73;;;18.70;99.90;;;;;;4978642;28;20204;-56
2021/06/29 01:39:18;;;;;;;4.00;3.80;;;18.80;99.90;;;;;;4987136;28;20290;-59
2021/06/29 01:41:44;;;;;;;5.63;4.03;;;18.90;99.90;;;;;;4987549;28;20184;-58
2021/06/29 01:44:13;;;;;;;4.33;4.03;;;19.00;99.90;;;;;;4984805;28;20182;-57
2021/06/29 01:46:41;;;;;;;4.13;3.83;;;19.10;99.90;;;;;;4986866;28;20192;-58
2021/06/29 01:49:07;;;;;;;3.72;3.40;;;19.20;99.90;;;;;;4989325;28;20215;-58
2021/06/29 01:51:33;;;;;;;4.03;3.67;;;19.20;99.90;;;;;;4987875;28;20261;-58
2021/06/29 01:53:58;;;;;;;4.10;3.70;;;19.20;99.90;;;;;;4985657;28;20223;-57
2021/06/29 01:56:36;;;;;;;3.80;3.50;;;19.20;99.90;;;;;;4980749;28;20573;-56
2021/06/29 01:59:09;;;;;;;4.60;4.20;;;19.00;99.90;;;;;;4979427;28;20204;-57
2021/06/29 02:01:37;;;;;;;3.58;3.38;;;19.00;99.90;;;;;;4990537;28;20190;-58
2021/06/29 02:04:03;;;;;;;4.75;4.45;;;18.90;99.90;;;;;;4978672;28;20713;-57
2021/06/29 02:06:29;;;;;;;4.73;3.90;;;18.90;99.90;;;;;;4986708;28;20283;-59
2021/06/29 02:08:55;;;;;;;4.60;4.30;;;18.70;99.90;;;;;;4983733;28;20835;-57
2021/06/29 02:11:20;;;;;;;7.00;4.63;;;18.60;99.90;;;;;;4979956;28;20230;-58
2021/06/29 02:13:46;;;;;;;4.50;4.20;;;18.50;99.90;;;;;;4987360;28;20465;-57
2021/06/29 02:16:11;;;;;;;4.87;4.57;;;18.50;99.90;;;;;;4988938;28;20223;-58
2021/06/29 02:18:37;;;;;;;6.43;4.77;;;18.50;99.90;;;;;;4976152;28;20206;-58
2021/06/29 02:21:05;;;;;;;5.00;4.60;;;18.50;99.90;;;;;;4987973;28;20195;-59
2021/06/29 02:23:31;;;;;;;4.78;4.47;;;18.40;99.90;;;;;;4983254;28;20657;-57
2021/06/29 02:25:57;;;;;;;5.03;4.63;;;18.40;99.90;;;;;;4982823;28;20280;-58
2021/06/29 02:28:23;;;;;;;5.27;4.87;;;18.60;99.90;;;;;;4985465;28;20215;-59
2021/06/29 02:30:49;;;;;;;4.97;4.57;;;18.60;99.90;;;;;;4989142;28;20187;-58
2021/06/29 02:33:14;;;;;;;6.07;5.57;;;18.60;99.90;;;;;;4987532;28;20500;-57
2021/06/29 02:35:40;;;;;;;5.43;5.13;;;18.60;99.90;;;;;;4984993;28;20220;-57
2021/06/29 02:38:06;;;;;;;5.30;5.00;;;18.60;99.90;;;;;;4989006;28;20636;-59
2021/06/29 02:40:32;;;;;;;5.68;5.13;;;18.70;99.90;;;;;;4981811;28;20187;-59
2021/06/29 02:42:59;;;;;;;5.60;5.20;;;18.70;99.90;;;;;;4985753;28;20180;-59
2021/06/29 02:45:25;;;;;;;6.00;5.60;;;18.60;99.90;;;;;;4980449;28;20623;-59
2021/06/29 02:47:52;;;;;;;5.82;5.32;;;18.60;99.90;;;;;;4975849;28;20819;-59
2021/06/29 02:50:18;;;;;;;6.20;5.70;;;18.60;99.90;;;;;;4978253;28;20188;-59
2021/06/29 02:52:44;;;;;;;5.80;5.40;;;18.70;99.90;;;;;;4979645;28;20184;-58
2021/06/29 02:55:13;;;;;;;5.55;5.15;;;18.70;99.90;;;;;;4988425;28;20183;-57
2021/06/29 02:57:38;;;;;;;6.55;6.15;;;18.70;99.90;;;;;;4980351;28;20210;-58
2021/06/29 03:00:06;;;;;;;7.20;5.60;;;18.80;99.90;;;;;;4982134;28;20184;-59
2021/06/29 03:02:32;;;;;;;5.82;5.43;;;18.50;99.90;;;;;;4987112;28;20187;-57
2021/06/29 03:04:57;;;;;;;6.70;6.20;;;18.50;99.90;;;;;;4979674;28;20180;-59
2021/06/29 03:07:23;;;;;;;5.20;4.80;;;18.40;99.90;;;;;;4975797;28;20185;-57
2021/06/29 03:09:49;;;;;;;5.40;5.00;;;18.40;99.90;;;;;;4987441;28;20656;-59
2021/06/29 03:12:15;;;;;;;4.73;4.43;;;18.40;99.90;;;;;;4985156;28;20583;-58
2021/06/29 03:14:41;;;;;;;6.13;5.63;;;18.40;99.90;;;;;;4980207;28;20501;-58
2021/06/29 03:17:07;;;;;;;5.85;5.35;;;18.40;99.90;;;;;;4982771;28;20267;-57
2021/06/29 03:19:34;;;;;;;5.90;5.50;;;18.40;99.90;;;;;;4986384;28;20186;-58
2021/06/29 03:22:00;;;;;;;5.60;5.10;;;18.50;99.90;;;;;;4981969;28;20259;-58
2021/06/29 03:24:29;;;;;;;5.75;5.35;;;18.60;99.90;;;;;;4987560;28;20187;-59
2021/06/29 03:26:55;;;;;;;5.90;5.50;;;18.60;99.90;;;;;;4982356;28;20191;-59
2021/06/29 03:29:21;;;;;;;5.80;5.28;;;18.70;99.90;;;;;;4980710;28;20302;-59
2021/06/29 03:31:47;;;;;;;6.40;5.90;;;18.70;99.90;;;;;;4982681;28;20215;-59
2021/06/29 03:34:13;;;;;;;5.87;5.30;;;18.60;99.90;;;;;;4982594;28;20446;-58
2021/06/29 03:36:41;;;;;;;6.47;5.88;;;18.70;99.90;;;;;;4985640;28;21063;-57
2021/06/29 03:39:08;;;;;;;5.93;5.50;;;18.60;99.90;;;;;;4982152;28;20217;-57
2021/06/29 03:41:34;;;;;;;5.88;5.47;;;18.70;99.90;;;;;;4986191;28;20570;-57
2021/06/29 03:44:00;;;;;;;6.70;5.85;;;18.70;99.90;;;;;;4982925;28;20262;-58
2021/06/29 03:46:26;;;;;;;6.23;5.73;;;18.60;99.90;;;;;;4978478;28;20362;-57
2021/06/29 03:48:51;;;;;;;6.10;5.60;;;18.70;99.90;;;;;;4982860;28;20745;-58
2021/06/29 03:51:17;;;;;;;7.83;6.40;;;18.70;99.90;;;;;;4981556;28;20443;-57
2021/06/29 03:53:43;;;;;;;6.63;6.03;;;18.50;99.90;;;;;;4978525;28;20194;-56
2021/06/29 03:56:23;;;;;;;7.43;6.50;;;18.20;99.90;;;;;;4985059;28;20206;-57
2021/06/29 03:58:54;;;;;;;6.20;5.65;;;18.10;99.90;;;;;;4989628;28;20225;-57
2021/06/29 04:01:19;;;;;;;7.20;6.57;;;18.10;99.90;;;;;;4978549;28;20215;-58
2021/06/29 04:03:45;;;;;;;6.90;6.30;;;18.10;99.90;;;;;;4981020;28;20735;-59
2021/06/29 04:06:11;;;;;;;6.50;6.00;;;18.20;99.90;;;;;;4990334;28;20187;-58
2021/06/29 04:08:37;;;;;;;6.43;6.00;;;18.30;99.90;;;;;;4983386;28;20207;-57
2021/06/29 04:11:02;;;;;;;7.60;6.00;;;18.40;99.90;;;;;;4984911;28;20190;-56
2021/06/29 04:13:28;;;;;;;6.53;6.03;;;18.40;99.90;;;;;;4983825;28;20501;-55
2021/06/29 04:15:54;;;;;;;5.23;4.73;;;18.50;99.90;;;;;;4997496;28;20245;-56
2021/06/29 04:18:20;;;;;;;5.93;5.40;;;18.50;99.90;;;;;;4985019;28;20289;-58
2021/06/29 04:20:45;;;;;;;6.65;4.60;;;18.50;99.90;;;;;;4982198;28;20188;-55
2021/06/29 04:23:11;;;;;;;7.53;5.00;;;18.50;99.90;;;;;;4980193;28;20266;-56
2021/06/29 04:25:37;;;;;;;5.30;4.90;;;18.60;99.90;;;;;;4985808;28;20187;-56
2021/06/29 04:28:03;;;;;;;4.87;4.50;;;18.60;99.90;;;;;;4982855;28;20207;-57
2021/06/29 04:30:28;;;;;;;4.60;4.20;;;18.60;99.90;;;;;;4980450;28;20193;-57
2021/06/29 04:32:54;;;;;;;5.03;4.73;;;18.60;99.90;;;;;;4983694;28;20523;-55
2021/06/29 04:35:20;;;;;;;6.50;5.33;;;18.70;99.90;;;;;;4978641;28;20215;-55
2021/06/29 04:37:45;;;;;;;6.00;5.60;;;18.90;99.90;;;;;;4995787;28;20298;-54
2021/06/29 04:40:12;;;;;;;6.20;5.70;;;18.90;99.90;;;;;;4982146;28;20184;-55
2021/06/29 04:42:37;;;;;;;6.05;5.65;;;19.00;99.90;;;;;;4976708;28;20180;-55
2021/06/29 04:45:04;;;;;;;5.80;5.30;;;18.90;99.90;;;;;;4985460;28;20195;-55
2021/06/29 04:47:36;;;;;;;6.55;5.65;;;18.80;99.90;;;;;;4983080;28;20207;-55
2021/06/29 04:50:05;;;;;;;6.05;5.63;;;18.90;99.90;;;;;;4980488;28;20249;-55
2021/06/29 04:52:31;;;;;;;5.93;5.43;;;19.00;99.90;;;;;;4978292;28;20603;-55
2021/06/29 04:54:57;;;;;;;6.32;5.70;;;18.90;99.90;;;;;;4987469;28;20271;-55
2021/06/29 04:57:22;;;;;;;6.50;5.90;;;18.90;99.90;;;;;;4999253;28;20295;-54
2021/06/29 04:59:48;;;;;;;7.03;6.43;;;19.00;99.90;;;;;;4971905;28;20263;-55
2021/06/29 05:02:13;;;;;;;6.67;5.43;;;18.90;99.90;;;;;;4977809;28;20604;-57
2021/06/29 05:04:39;;;;;;;6.67;6.17;;;19.00;99.90;;;;;;4982858;28;20601;-57
2021/06/29 05:07:05;;;;;;;6.40;5.90;;;18.90;99.90;;;;;;4982264;28;20204;-55
2021/06/29 05:09:30;;;;;;;6.73;6.13;;;18.70;99.90;;;;;;4983499;28;20216;-55
2021/06/29 05:11:56;;;;;;;7.10;6.40;;;18.70;99.90;;;;;;4977739;28;20195;-57
2021/06/29 05:14:23;;;;;;;6.43;5.93;;;18.80;99.90;;;;;;4984698;28;20196;-56
2021/06/29 05:16:48;;;;;;;5.68;5.28;;;18.80;99.90;;;;;;5003194;28;20626;-56
2021/06/29 05:19:14;;;;;;;6.43;5.87;;;18.90;99.90;;;;;;4985602;28;20211;-55
2021/06/29 05:21:40;;;;;;;5.63;5.23;;;18.90;99.90;;;;;;4990155;28;20226;-58
2021/06/29 05:24:05;;;;;;;7.30;5.60;;;19.00;99.90;;;;;;4989087;28;20559;-56
2021/06/29 05:26:31;;;;;;;5.90;5.30;;;19.00;99.90;;;;;;4976207;28;20204;-56
2021/06/29 05:28:57;;;;;;;6.30;5.80;;;19.00;99.90;;;;;;4994486;28;20455;-56
2021/06/29 05:31:22;;;;;;;5.60;5.20;;;18.90;99.90;;;;;;4982743;28;20191;-56
2021/06/29 05:33:48;;;;;;;5.77;5.13;;;19.00;99.90;;;;;;4985919;28;20674;-56
2021/06/29 05:36:14;;;;;;;5.90;5.30;;;19.00;99.90;;;;;;4987136;28;20242;-56
2021/06/29 05:38:39;;;;;;;6.40;5.67;;;19.00;99.90;;;;;;4987601;28;20238;-56
2021/06/29 05:41:05;;;;;;;5.27;4.77;;;19.10;99.90;;;;;;4975538;28;20275;-55
2021/06/29 05:43:31;;;;;;;5.40;5.00;;;19.00;99.90;;;;;;4984116;28;20197;-56
2021/06/29 05:45:56;;;;;;;6.23;5.73;;;19.10;99.90;;;;;;4982327;28;20326;-55
2021/06/29 05:48:22;;;;;;;6.53;5.93;;;19.10;99.90;;;;;;4975014;28;20211;-56
2021/06/29 05:50:48;;;;;;;6.50;6.00;;;19.10;99.90;;;;;;4986921;28;20723;-54
2021/06/29 05:53:14;;;;;;;7.67;7.00;;;19.10;99.90;;;;;;4983065;28;20223;-54
2021/06/29 05:55:41;;;;;;;5.45;5.05;;;19.00;99.90;;;;;;4985646;28;20294;-55
2021/06/29 05:58:06;;;;;;;6.70;6.20;;;19.10;99.90;;;;;;4986123;28;20648;-56
2021/06/29 06:00:32;;;;;;;5.50;5.10;;;19.10;99.90;;;;;;4983094;28;20218;-56
2021/06/29 06:02:57;;;;;;;5.60;5.20;;;19.20;99.90;;;;;;4977352;28;20179;-55
2021/06/29 06:05:23;;;;;;;5.40;5.00;;;19.20;99.90;;;;;;4989236;28;20554;-56
2021/06/29 06:07:52;;;;;;;5.47;4.53;;;19.10;99.90;;;;;;4983554;28;20204;-56
2021/06/29 06:10:18;;;;;;;5.70;5.30;;;19.20;99.90;;;;;;4970653;28;20210;-56
2021/06/29 06:12:44;;;;;;;5.37;4.97;;;19.30;99.90;;;;;;4982032;28;20270;-56
2021/06/29 06:15:09;;;;;;;6.50;6.00;;;19.40;99.90;;;;;;4978438;28;20653;-55
2021/06/29 06:17:37;;;;;;;6.60;6.10;;;19.40;99.90;;;;;;4977467;28;20199;-56
2021/06/29 06:20:08;;;;;;;7.00;6.40;;;19.30;99.90;;;;;;4983499;28;20664;-58
2021/06/29 06:22:34;;;;;;;9.23;5.97;;;19.40;99.90;;;;;;4986627;28;20245;-56
2021/06/29 06:25:00;;;;;;;5.80;5.30;;;19.40;99.90;;;;;;4986577;28;20425;-57
2021/06/29 06:27:26;;;;;;;4.50;4.20;;;19.70;99.90;;;;;;4982400;28;20467;-55
2021/06/29 06:29:51;;;;;;;4.60;4.30;;;19.90;99.90;;;;;;4981982;28;20443;-57
2021/06/29 06:32:17;;;;;;;3.90;3.60;;;20.00;99.90;;;;;;4986086;28;20446;-55
2021/06/29 06:34:43;;;;;;;4.23;3.90;;;20.10;99.90;;;;;;4977694;28;20184;-56
2021/06/29 06:37:08;;;;;;;4.60;4.30;;;20.50;99.90;;;;;;4975102;28;20223;-56
2021/06/29 06:39:34;;;;;;;4.00;3.70;;;20.50;99.90;;;;;;4988120;28;20559;-56
2021/06/29 06:42:00;;;;;;;4.67;4.27;;;20.70;99.90;;;;;;4979261;28;20571;-57
2021/06/29 06:44:25;;;;;;;5.00;4.70;;;20.80;99.90;;;;;;4982281;28;20482;-57
2021/06/29 06:46:51;;;;;;;4.43;3.53;;;21.00;99.90;;;;;;4985829;28;20185;-56
2021/06/29 06:49:17;;;;;;;3.97;3.67;;;21.10;99.90;;;;;;4982426;28;20207;-56
2021/06/29 06:51:42;;;;;;;5.20;4.37;;;21.40;99.90;;;;;;4982475;28;20204;-55
2021/06/29 06:54:08;;;;;;;4.10;3.70;;;21.50;99.90;;;;;;4981228;28;20265;-57
2021/06/29 06:56:34;;;;;;;3.67;3.40;;;21.60;99.90;;;;;;4977521;28;20213;-56
2021/06/29 06:58:59;;;;;;;3.20;3.00;;;21.60;99.90;;;;;;4977662;28;20195;-55
2021/06/29 07:01:25;;;;;;;3.70;3.50;;;21.90;99.90;;;;;;4979385;28;20184;-57
2021/06/29 07:03:50;;;;;;;3.40;3.07;;;22.50;99.90;;;;;;4976942;28;20187;-56
2021/06/29 07:06:16;;;;;;;4.13;3.63;;;23.10;99.90;;;;;;4978345;28;20215;-56
2021/06/29 07:08:43;;;;;;;4.27;3.93;;;24.60;99.90;;;;;;4978800;28;20228;-56
2021/06/29 07:11:09;;;;;;;3.03;2.57;;;26.00;99.90;;;;;;4975666;28;20191;-57
2021/06/29 07:13:35;;;;;;;4.23;3.03;;;28.20;96.30;;;;;;4985024;28;20455;-57
2021/06/29 07:16:01;;;;;;;2.20;2.10;;;29.80;92.60;;;;;;4975102;28;20220;-58
2021/06/29 07:18:26;;;;;;;3.40;2.03;;;32.10;87.30;;;;;;4981991;28;20471;-59
2021/06/29 07:20:52;;;;;;;2.80;2.60;;;34.10;78.10;;;;;;4982541;28;20183;-57
2021/06/29 07:23:19;;;;;;;2.60;2.40;;;34.10;77.70;;;;;;4974468;28;20295;-56
2021/06/29 07:25:45;;;;;;;3.43;2.57;;;34.70;74.60;;;;;;4984015;28;20188;-57
2021/06/29 07:28:11;;;;;;;3.50;2.67;;;34.90;70.10;;;;;;4982740;28;20454;-57
2021/06/29 07:30:37;;;;;;;2.57;2.10;;;35.70;64.30;;;;;;4974484;28;20446;-57
2021/06/29 07:33:04;;;;;;;2.50;2.30;;;35.00;66.70;;;;;;4985098;28;20278;-57
2021/06/29 07:35:31;;;;;;;2.40;2.30;;;35.30;65.30;;;;;;4987011;28;20470;-58
2021/06/29 07:37:59;;;;;;;1.87;1.77;;;36.70;64.30;;;;;;4983427;28;20525;-57
2021/06/29 07:40:26;;;;;;;2.47;1.70;;;35.50;64.40;;;;;;4985835;28;20510;-57
2021/06/29 07:42:51;;;;;;;1.90;1.80;;;35.50;61.50;;;;;;4973409;28;20850;-57
2021/06/29 07:45:17;;;;;;;3.43;1.63;;;36.90;60.40;;;;;;4977998;28;20514;-57
2021/06/29 07:47:43;;;;;;;1.90;1.80;;;36.00;65.30;;;;;;4982469;28;20287;-58
2021/06/29 07:50:10;;;;;;;1.70;1.53;;;37.00;59.30;;;;;;4970524;28;20176;-57
2021/06/29 07:52:36;;;;;;;1.60;1.50;;;38.40;58.30;;;;;;4978511;28;20535;-58
2021/06/29 07:55:07;;;;;;;1.47;1.37;;;38.10;55.30;;;;;;4979509;28;20505;-56
2021/06/29 07:57:33;;;;;;;1.90;1.80;;;37.70;56.00;;;;;;4987137;28;20470;-57
2021/06/29 07:59:59;;;;;;;2.27;2.07;;;38.30;54.60;;;;;;4982816;28;20513;-57
2021/06/29 08:02:24;;;;;;;2.17;1.50;;;38.50;52.20;;;;;;4982999;28;20925;-57
2021/06/29 08:04:50;;;;;;;3.57;1.70;;;38.20;54.10;;;;;;4977510;28;20191;-56
2021/06/29 08:07:16;;;;;;;2.70;2.37;;;38.90;51.30;;;;;;4985825;28;20191;-56
2021/06/29 08:09:42;;;;;;;1.63;1.53;;;37.40;54.90;;;;;;4982491;28;20206;-57
2021/06/29 08:12:08;;;;;;;1.80;1.40;;;37.40;53.80;;;;;;4983394;28;20183;-56
2021/06/29 08:14:36;;;;;;;2.60;2.40;;;37.10;54.70;;;;;;4980371;28;20449;-56
2021/06/29 08:17:03;;;;;;;2.33;1.83;;;36.60;53.10;;;;;;4978441;28;20470;-58
2021/06/29 08:19:29;;;;;;;1.87;1.77;;;37.30;53.20;;;;;;4992441;28;20486;-58
2021/06/29 08:21:56;;;;;;;1.70;1.60;;;36.80;52.60;;;;;;4978306;28;20470;-57
2021/06/29 08:24:22;;;;;;;1.60;1.50;;;36.70;50.70;;;;;;4980766;28;20573;-58
2021/06/29 08:26:48;;;;;;;1.97;1.87;;;36.50;51.40;;;;;;4981080;28;20533;-57
2021/06/29 08:29:13;;;;;;;1.60;1.50;;;38.00;48.40;;;;;;4981269;28;20993;-56
2021/06/29 08:31:39;;;;;;;2.20;2.07;;;37.50;48.20;;;;;;4986323;28;20196;-57
2021/06/29 08:34:05;;;;;;;2.57;2.17;;;39.10;46.10;;;;;;4984760;28;20659;-57
2021/06/29 08:36:31;;;;;;;1.93;1.60;;;40.00;45.80;;;;;;4985287;28;20599;-56
2021/06/29 08:38:57;;;;;;;2.27;1.70;;;39.20;45.20;;;;;;4978542;28;20984;-57
2021/06/29 08:41:23;;;;;;;1.50;1.40;;;38.80;46.10;;;;;;4991636;28;20188;-56
2021/06/29 08:43:51;;;;;;;1.70;1.60;;;38.20;47.60;;;;;;4986729;28;20827;-57
2021/06/29 08:46:17;;;;;;;2.00;1.80;;;37.70;46.50;;;;;;4991108;28;20234;-57
2021/06/29 08:48:42;;;;;;;1.87;1.50;;;38.70;45.40;;;;;;4987990;28;21101;-58
2021/06/29 08:51:09;;;;;;;1.80;1.70;;;38.90;44.40;;;;;;4990435;28;20481;-58
2021/06/29 08:53:35;;;;;;;2.10;2.00;;;37.50;44.50;;;;;;4988578;28;20566;-57
2021/06/29 08:56:01;;;;;;;2.13;2.03;;;38.40;46.60;;;;;;4985333;28;20824;-58
2021/06/29 08:58:31;;;;;;;3.00;2.80;;;38.90;46.60;;;;;;4986030;28;20465;-57
2021/06/29 09:00:57;;;;;;;1.90;1.80;;;38.80;47.20;;;;;;4995639;28;20449;-57
2021/06/29 09:03:23;;;;;;;1.60;1.50;;;39.50;44.80;;;;;;4976495;28;20443;-56
2021/06/29 09:05:51;;;;;;;1.77;1.67;;;37.20;45.00;;;;;;4983240;28;20195;-56
2021/06/29 09:08:19;;;;;;;3.30;3.10;;;35.90;48.00;;;;;;4977899;28;20458;-59
2021/06/29 09:11:05;;;;;;;3.37;2.00;;;37.00;48.00;;;;;;4985448;28;20521;-56
2021/06/29 09:13:31;;;;;;;3.37;1.77;;;36.70;48.00;;;;;;4981889;28;20451;-56
2021/06/29 09:15:57;;;;;;;2.00;1.80;;;35.30;49.50;;;;;;4985023;28;20788;-56
2021/06/29 09:18:24;;;;;;;4.73;2.13;;;32.90;54.30;;;;;;4981115;28;20214;-56
2021/06/29 09:20:52;;;;;;;4.77;2.60;;;31.80;56.90;;;;;;4985139;28;20460;-56
2021/06/29 09:23:34;;;;;;;5.00;2.80;;;31.10;58.60;;;;;;4985225;28;20944;-56
2021/06/29 09:26:27;;;;;;;3.50;2.10;;;30.50;60.40;;;;;;4979348;28;20490;-56
2021/06/29 09:29:01;;;;;;;3.93;2.40;;;29.90;59.70;;;;;;4981069;28;20473;-56
2021/06/29 09:31:33;;;;;;;2.33;2.00;;;28.90;62.40;;;;;;4984710;28;20501;-56
2021/06/29 09:34:11;;;;;;;2.60;2.40;;;30.40;61.60;;;;;;4987638;28;20522;-56
2021/06/29 09:36:39;;;;;;;1.60;1.50;;;31.90;56.30;;;;;;4979633;28;20470;-56
2021/06/29 09:39:13;;;;;;;2.80;2.60;;;33.10;54.00;;;;;;4986384;28;20980;-57
2021/06/29 09:41:39;;;;;;;1.70;1.60;;;34.30;52.20;;;;;;4983332;28;20530;-57
2021/06/29 09:44:10;;;;;;;2.33;1.70;;;35.30;49.60;;;;;;4987936;28;20585;-57
2021/06/29 09:46:37;;;;;;;2.33;1.70;;;36.10;47.20;;;;;;4984730;28;20656;-57
2021/06/29 09:49:13;;;;;;;2.23;1.73;;;36.00;46.50;;;;;;4983770;28;20471;-56
2021/06/29 09:51:41;;;;;;;1.90;1.80;;;35.80;47.10;;;;;;4978302;28;20459;-56
2021/06/29 09:54:09;;;;;;;1.90;1.80;;;35.20;47.80;;;;;;4974303;28;20490;-57
2021/06/29 09:56:38;;;;;;;1.80;1.70;;;34.70;50.00;;;;;;4972307;28;20499;-57
2021/06/29 09:59:10;;;;;;;6.70;2.73;;;34.70;50.60;;;;;;4977368;28;20497;-57
2021/06/29 10:01:35;;;;;;;2.30;2.10;;;34.80;50.70;;;;;;4979912;28;21134;-57
2021/06/29 10:04:05;;;;;;;1.70;1.60;;;35.10;49.80;;;;;;4975391;28;20443;-57
2021/06/29 10:06:33;;;;;;;2.53;2.17;;;34.90;50.00;;;;;;4975151;28;20196;-57
2021/06/29 10:09:16;;;;;;;1.90;1.80;;;35.40;48.60;;;;;;4977070;28;20875;-57
2021/06/29 10:11:42;;;;;;;2.93;2.73;;;35.90;46.70;;;;;;4975573;28;20516;-57
2021/06/29 10:14:10;;;;;;;1.80;1.70;;;36.20;47.30;;;;;;4975871;28;21159;-57
2021/06/29 10:16:44;;;;;;;1.80;1.70;;;34.70;48.80;;;;;;4980877;28;20475;-57
2021/06/29 10:21:42;;;;;;;2.17;1.60;;;35.00;47.60;;;;;;4985083;28;20445;-57
2021/06/29 10:24:10;;;;;;;2.03;1.57;;;36.40;46.30;;;;;;4977832;28;20452;-58
2021/06/29 10:26:39;;;;;;;2.53;1.80;;;37.30;45.30;;;;;;4980216;28;20452;-57
2021/06/29 10:29:08;;;;;;;2.40;1.73;;;36.30;44.80;;;;;;4978108;28;20481;-57
2021/06/29 10:31:39;;;;;;;1.93;1.63;;;35.10;46.30;;;;;;4975059;28;20451;-57
2021/06/29 10:34:07;;;;;;;1.80;1.70;;;34.40;47.90;;;;;;4978155;28;20452;-57
2021/06/29 10:36:38;;;;;;;1.90;1.80;;;34.20;48.30;;;;;;4978691;28;20481;-57
2021/06/29 10:39:04;;;;;;;2.37;2.20;;;34.40;48.00;;;;;;4975438;28;20465;-57
2021/06/29 10:41:43;;;;;;;1.73;1.63;;;34.80;47.70;;;;;;4982373;28;20669;-57
2021/06/29 10:44:11;;;;;;;1.83;1.70;;;34.90;47.80;;;;;;4983308;28;20492;-57
2021/06/29 10:46:41;;;;;;;2.10;2.00;;;35.40;47.00;;;;;;4984650;28;20830;-57
2021/06/29 10:49:36;;;;;;;2.60;2.40;;;36.50;46.20;;;;;;4980661;28;20474;-58
2021/06/29 10:52:22;;;;;;;1.87;1.77;;;37.00;45.30;;;;;;4976948;28;20987;-57
2021/06/29 10:54:51;;;;;;;1.93;1.83;;;36.80;44.70;;;;;;4975796;28;20566;-58
2021/06/29 10:57:40;;;;;;;2.10;2.00;;;36.60;45.00;;;;;;4978756;28;20566;-58
2021/06/29 11:00:21;;;;;;;1.80;1.70;;;35.90;45.50;;;;;;4980074;28;20440;-57
2021/06/29 11:03:01;;;;;;;1.83;1.73;;;35.50;46.80;;;;;;4977365;28;20443;-57
2021/06/29 11:05:29;;;;;;;2.40;2.30;;;35.90;46.30;;;;;;4983271;28;20453;-57
2021/06/29 11:08:15;;;;;;;2.07;1.97;;;35.70;46.60;;;;;;4985531;28;20843;-57
2021/06/29 11:10:48;;;;;;;3.90;2.47;;;34.40;48.50;;;;;;4972608;28;20436;-56
2021/06/29 11:13:14;;;;;;;2.50;2.30;;;32.40;51.10;;;;;;4979532;28;20942;-57
2021/06/29 11:15:56;;;;;;;2.13;1.93;;;31.40;54.70;;;;;;4984803;28;20550;-56
2021/06/29 11:18:45;;;;;;;4.20;2.80;;;30.80;56.00;;;;;;4973497;28;20482;-57
2021/06/29 11:21:35;;;;;;;2.70;2.50;;;30.20;58.30;;;;;;4981573;28;20461;-57
2021/06/29 11:24:21;;;;;;;2.27;2.17;;;29.70;58.80;;;;;;4977489;28;20550;-55
2021/06/29 11:26:46;;;;;;;2.77;2.50;;;29.00;60.30;;;;;;4982024;28;21575;-56
2021/06/29 11:29:12;;;;;;;2.20;2.00;;;29.10;63.00;;;;;;4980011;28;20509;-55
2021/06/29 11:31:38;;;;;;;2.40;2.30;;;29.20;61.80;;;;;;4982669;28;20221;-53
2021/06/29 11:34:04;;;;;;;2.93;2.73;;;29.20;63.60;;;;;;4988136;28;20194;-58
2021/06/29 11:36:32;;;;;;;4.10;2.67;;;29.30;63.90;;;;;;4996758;28;20528;-58
2021/06/29 11:39:16;;;;;;;3.27;2.43;;;29.80;61.90;;;;;;4983206;28;20459;-58
2021/06/29 11:41:50;;;;;;;4.20;2.83;;;29.50;61.90;;;;;;4977233;28;20441;-58
2021/06/29 11:44:42;;;;;;;4.27;3.37;;;29.30;61.30;;;;;;4988557;28;20437;-59
2021/06/29 11:47:11;;;;;;;2.70;2.50;;;29.50;62.90;;;;;;4984363;28;20473;-58
2021/06/29 11:49:58;;;;;;;2.73;2.57;;;29.80;62.00;;;;;;4983967;28;20447;-58
2021/06/29 11:52:28;;;;;;;2.80;2.60;;;29.50;63.40;;;;;;4974918;28;20976;-59
2021/06/29 11:54:56;;;;;;;2.90;2.70;;;29.30;61.70;;;;;;4975181;28;20551;-58
2021/06/29 11:57:23;;;;;;;2.70;2.50;;;29.10;62.60;;;;;;4974033;28;20463;-59
2021/06/29 11:59:52;;;;;;;2.40;2.20;;;29.00;64.30;;;;;;4982619;28;20497;-60
2021/06/29 12:02:29;;;;;;;2.70;2.30;;;28.70;64.20;;;;;;4994943;28;20514;-58
2021/06/29 12:04:59;;;;;;;2.70;2.50;;;28.50;64.80;;;;;;4977262;28;20578;-59
2021/06/29 12:07:45;;;;;;;2.60;2.40;;;28.40;66.20;;;;;;4978342;28;20452;-58
2021/06/29 12:10:31;;;;;;;2.73;2.53;;;28.20;66.30;;;;;;4980914;28;20442;-59
2021/06/29 12:13:03;;;;;;;2.40;2.20;;;28.20;66.50;;;;;;4989721;28;20498;-58
2021/06/29 12:15:39;;;;;;;2.40;2.30;;;28.00;65.60;;;;;;4980090;28;20461;-59
2021/06/29 12:18:20;;;;;;;2.90;2.47;;;27.90;66.80;;;;;;4987499;28;20826;-59
2021/06/29 12:21:05;;;;;;;4.93;2.10;;;28.00;66.30;;;;;;4975500;28;20443;-56
2021/06/29 12:23:35;;;;;;;2.87;2.67;;;28.10;67.20;;;;;;4984021;28;20544;-56
2021/06/29 12:26:05;;;;;;;1.90;1.80;;;28.00;65.60;;;;;;4984062;28;20597;-56
2021/06/29 12:28:37;;;;;;;2.93;2.10;;;28.00;66.10;;;;;;4981250;28;20471;-57
2021/06/29 12:31:08;;;;;;;3.50;2.80;;;28.00;65.90;;;;;;4986827;28;20494;-56
2021/06/29 12:33:38;;;;;;;2.20;2.00;;;28.00;66.60;;;;;;4984175;28;20509;-56
2021/06/29 12:36:07;;;;;;;2.63;2.40;;;28.10;65.50;;;;;;4980142;28;20503;-57
2021/06/29 12:38:42;;;;;;;2.13;2.03;;;28.00;66.90;;;;;;4987438;28;20463;-57
2021/06/29 12:41:21;;;;;;;2.70;2.50;;;28.10;66.60;;;;;;4988273;28;20472;-57
2021/06/29 12:43:53;;;;;;;3.30;3.00;;;28.10;66.60;;;;;;4994739;28;20841;-58
2021/06/29 12:46:21;;;;;;;2.77;2.57;;;28.20;66.90;;;;;;4987761;28;20976;-57
2021/06/29 12:48:56;;;;;;;3.97;3.63;;;28.10;68.70;;;;;;4987907;28;20593;-57
2021/06/29 12:51:22;;;;;;;3.57;3.27;;;28.00;70.20;;;;;;4981272;28;20962;-58
2021/06/29 12:53:55;;;;;;;4.17;3.00;;;27.90;71.80;;;;;;4977654;28;20458;-57
2021/06/29 12:56:20;;;;;;;4.97;2.90;;;27.80;71.00;;;;;;4985546;28;20610;-59
2021/06/29 12:58:48;;;;;;;5.70;4.33;;;27.60;71.80;;;;;;4985221;28;20569;-57